createdAt,value
2022-10-25T00:01:17.890Z,83.49
2022-10-25T00:03:45.816Z,83.42
2022-10-25T00:06:14.361Z,83.49
2022-10-25T00:08:41.621Z,83.48
2022-10-25T00:11:12.089Z,83.39
2022-10-25T00:13:39.286Z,83.44
2022-10-25T00:16:07.299Z,83.63
2022-10-25T00:18:34.758Z,83.73
2022-10-25T00:21:06.918Z,83.78
2022-10-25T00:23:34.272Z,83.86
2022-10-25T00:26:05.182Z,83.86
2022-10-25T00:28:32.212Z,83.97
2022-10-25T00:31:05.040Z,84.10
2022-10-25T00:33:33.708Z,84.15
2022-10-25T00:36:07.205Z,84.09
2022-10-25T00:38:34.663Z,84.22
2022-10-25T00:41:02.253Z,84.23
2022-10-25T00:43:38.100Z,84.33
2022-10-25T00:46:09.012Z,84.50
2022-10-25T00:48:36.887Z,84.44
2022-10-25T00:51:05.295Z,84.68
2022-10-25T00:53:37.307Z,84.76
2022-10-25T00:56:10.210Z,84.88
2022-10-25T00:58:40.314Z,84.98
2022-10-25T01:01:10.628Z,85.11
2022-10-25T01:03:39.783Z,85.20
2022-10-25T01:06:12.349Z,85.32
2022-10-25T01:08:40.086Z,85.45
2022-10-25T01:11:07.253Z,85.53
2022-10-25T01:13:34.592Z,85.49
2022-10-25T01:16:10.872Z,85.53
2022-10-25T01:18:46.375Z,85.52
2022-10-25T01:21:34.989Z,85.66
2022-10-25T01:24:16.110Z,85.44
2022-10-25T01:27:16.918Z,85.24
2022-10-25T01:30:05.010Z,85.10
2022-10-25T01:32:39.807Z,85.06
2022-10-25T01:35:15.253Z,85.12
2022-10-25T01:37:49.919Z,85.13
2022-10-25T01:40:25.171Z,85.08
2022-10-25T01:43:02.394Z,85.22
2022-10-25T01:45:35.204Z,85.27
2022-10-25T01:48:09.355Z,85.49
2022-10-25T01:50:41.167Z,85.74
2022-10-25T01:53:08.757Z,86.03
2022-10-25T01:55:40.660Z,86.29
2022-10-25T01:58:19.534Z,86.60
2022-10-25T02:00:55.236Z,86.74
2022-10-25T02:03:29.265Z,87.08
2022-10-25T02:06:10.538Z,87.29
2022-10-25T02:08:43.045Z,87.42
2022-10-25T02:11:19.209Z,87.70
2022-10-25T02:13:59.449Z,87.92
2022-10-25T02:16:29.469Z,88.17
2022-10-25T02:19:00.130Z,88.50
2022-10-25T02:21:29.941Z,88.79
2022-10-25T02:23:59.399Z,88.93
2022-10-25T02:26:27.629Z,89.07
2022-10-25T02:28:56.147Z,89.53
2022-10-25T02:31:25.270Z,89.70
2022-10-25T02:33:53.082Z,89.99
2022-10-25T02:36:23.505Z,90.30
2022-10-25T02:38:52.561Z,90.50
2022-10-25T02:41:20.526Z,90.62
2022-10-25T02:43:47.716Z,90.90
2022-10-25T02:46:17.164Z,90.88
2022-10-25T02:48:47.395Z,91.09
2022-10-25T02:51:15.342Z,91.12
2022-10-25T02:53:42.656Z,91.14
2022-10-25T02:56:12.092Z,91.25
2022-10-25T02:58:41.707Z,91.46
2022-10-25T03:01:09.931Z,91.50
2022-10-25T03:03:37.465Z,91.66
2022-10-25T03:06:05.325Z,91.63
2022-10-25T03:08:33.017Z,91.74
2022-10-25T03:11:01.068Z,91.67
2022-10-25T03:13:28.154Z,91.76
2022-10-25T03:15:55.491Z,92.08
2022-10-25T03:18:23.197Z,92.17
2022-10-25T03:20:50.455Z,92.37
2022-10-25T03:23:19.420Z,92.52
2022-10-25T03:25:47.955Z,92.65
2022-10-25T03:28:16.905Z,92.91
2022-10-25T03:30:44.668Z,93.16
2022-10-25T03:33:11.695Z,93.06
2022-10-25T03:35:38.727Z,93.05
2022-10-25T03:38:05.919Z,93.14
2022-10-25T03:40:33.334Z,93.24
2022-10-25T03:43:00.496Z,93.05
2022-10-25T03:45:27.852Z,92.97
2022-10-25T03:47:54.943Z,92.90
2022-10-25T03:50:22.024Z,92.83
2022-10-25T03:52:48.966Z,92.73
2022-10-25T03:55:15.964Z,92.76
2022-10-25T03:57:43.126Z,92.78
2022-10-25T04:00:12.436Z,92.75
2022-10-25T04:02:39.618Z,92.81
2022-10-25T04:05:07.159Z,92.80
2022-10-25T04:07:34.442Z,92.76
2022-10-25T04:10:01.530Z,92.83
2022-10-25T04:12:28.780Z,93.01
2022-10-25T04:14:55.769Z,93.01
2022-10-25T04:17:23.130Z,93.08
2022-10-25T04:19:50.233Z,93.20
2022-10-25T04:22:17.299Z,93.28
2022-10-25T04:24:44.325Z,93.34
2022-10-25T04:27:11.336Z,93.47
2022-10-25T04:29:38.391Z,93.54
2022-10-25T04:32:05.658Z,93.56
2022-10-25T04:34:32.946Z,93.57
2022-10-25T04:37:00.004Z,93.72
2022-10-25T04:39:27.199Z,93.64
2022-10-25T04:41:54.162Z,93.74
2022-10-25T04:44:21.247Z,93.91
2022-10-25T04:46:49.011Z,93.89
2022-10-25T04:49:17.322Z,93.88
2022-10-25T04:51:45.067Z,93.78
2022-10-25T04:54:12.838Z,93.85
2022-10-25T04:56:39.967Z,93.82
2022-10-25T04:59:06.979Z,93.82
2022-10-25T05:01:34.237Z,93.98
2022-10-25T05:04:01.445Z,93.87
2022-10-25T05:06:29.298Z,93.95
2022-10-25T05:08:56.964Z,94.04
2022-10-25T05:11:25.867Z,93.93
2022-10-25T05:13:53.696Z,94.09
2022-10-25T05:16:24.830Z,93.98
2022-10-25T05:18:54.545Z,94.02
2022-10-25T05:21:22.400Z,93.98
2022-10-25T05:23:49.619Z,93.92
2022-10-25T05:26:18.732Z,93.88
2022-10-25T05:28:47.705Z,93.87
2022-10-25T05:31:17.004Z,93.92
2022-10-25T05:33:45.376Z,94.01
2022-10-25T05:36:13.157Z,94.06
2022-10-25T05:38:40.440Z,94.09
2022-10-25T05:41:08.856Z,94.11
2022-10-25T05:43:36.261Z,94.06
2022-10-25T05:46:08.760Z,94.10
2022-10-25T05:48:37.364Z,94.21
2022-10-25T05:54:06.152Z,94.20
2022-10-25T05:56:34.484Z,94.17
2022-10-25T05:59:07.830Z,94.05
2022-10-25T06:01:35.741Z,93.88
2022-10-25T06:04:03.257Z,93.69
2022-10-25T06:06:30.448Z,93.55
2022-10-25T06:09:00.099Z,93.54
2022-10-25T06:11:28.363Z,93.48
2022-10-25T06:13:55.629Z,93.76
2022-10-25T06:16:23.481Z,93.35
2022-10-25T06:18:50.759Z,92.92
2022-10-25T06:21:20.512Z,92.06
2022-10-25T06:23:48.945Z,91.25
2022-10-25T06:26:17.881Z,90.25
2022-10-25T06:28:45.039Z,90.18
2022-10-25T06:31:14.707Z,89.95
2022-10-25T06:33:42.426Z,89.81
2022-10-25T06:36:13.190Z,88.80
2022-10-25T06:38:40.594Z,88.13
2022-10-25T06:41:11.207Z,87.79
2022-10-25T06:43:39.044Z,86.87
2022-10-25T06:46:10.465Z,86.08
2022-10-25T06:48:38.204Z,84.78
2022-10-25T06:51:07.245Z,84.55
2022-10-25T06:53:36.306Z,83.77
2022-10-25T06:56:05.498Z,83.53
2022-10-25T06:58:34.790Z,82.88
2022-10-25T07:01:05.712Z,81.63
2022-10-25T07:03:35.268Z,81.29
2022-10-25T07:06:06.858Z,81.12
2022-10-25T07:08:33.991Z,80.74
2022-10-25T07:11:01.037Z,79.92
2022-10-25T07:13:28.446Z,79.02
2022-10-25T07:16:02.043Z,77.76
2022-10-25T07:18:30.339Z,77.10
2022-10-25T07:21:01.646Z,76.12
2022-10-25T07:23:29.201Z,74.84
2022-10-25T07:25:56.236Z,73.85
2022-10-25T07:28:23.290Z,73.05
2022-10-25T07:30:50.958Z,71.75
2022-10-25T07:33:19.805Z,70.39
2022-10-25T07:36:05.897Z,69.27
2022-10-25T07:38:36.829Z,68.48
2022-10-25T07:41:04.004Z,67.24
2022-10-25T07:43:32.211Z,66.22
2022-10-25T07:45:59.456Z,65.40
2022-10-25T07:48:27.015Z,64.32
2022-10-25T07:50:54.661Z,63.17
2022-10-25T07:53:21.838Z,63.47
2022-10-25T07:55:53.961Z,63.41
2022-10-25T07:58:21.695Z,63.71
2022-10-25T08:00:48.827Z,63.92
2022-10-25T08:03:17.931Z,63.63
2022-10-25T08:05:46.289Z,63.37
2022-10-25T08:08:13.465Z,63.21
2022-10-25T08:10:41.386Z,63.43
2022-10-25T08:13:08.616Z,63.67
2022-10-25T08:15:36.443Z,63.93
2022-10-25T08:18:05.062Z,64.91
2022-10-25T08:21:00.199Z,64.71
2022-10-25T08:23:17.711Z,64.55
2022-10-25T08:25:45.052Z,64.39
2022-10-25T08:28:12.133Z,64.28
2022-10-25T08:30:39.264Z,63.75
2022-10-25T08:33:10.619Z,63.77
2022-10-25T08:35:38.680Z,64.01
2022-10-25T08:38:07.095Z,64.73
2022-10-25T08:40:53.152Z,65.39
2022-10-25T08:43:33.478Z,66.09
2022-10-25T08:46:03.884Z,66.69
2022-10-25T08:48:35.396Z,67.36
2022-10-25T08:51:05.989Z,68.03
2022-10-25T08:53:38.832Z,68.73
2022-10-25T08:56:16.143Z,69.12
2022-10-25T08:58:51.300Z,69.92
2022-10-25T09:01:23.851Z,70.36
2022-10-25T09:03:51.026Z,70.70
2022-10-25T09:06:29.062Z,71.27
2022-10-25T09:09:10.201Z,71.67
2022-10-25T09:11:50.388Z,71.91
2022-10-25T09:14:24.339Z,72.31
2022-10-25T09:16:54.188Z,72.05
2022-10-25T09:19:27.359Z,71.93
2022-10-25T09:21:58.866Z,71.60
2022-10-25T09:24:34.889Z,71.25
2022-10-25T09:27:08.493Z,71.18
2022-10-25T09:29:39.258Z,70.65
2022-10-25T09:32:13.349Z,70.38
2022-10-25T09:34:42.026Z,70.37
2022-10-25T09:37:17.595Z,70.11
2022-10-25T09:39:48.255Z,69.66
2022-10-25T09:42:22.961Z,69.11
2022-10-25T09:44:55.955Z,69.06
2022-10-25T09:47:31.211Z,69.13
2022-10-25T09:50:03.307Z,69.63
2022-10-25T09:52:36.736Z,69.96
2022-10-25T09:55:17.299Z,70.32
2022-10-25T09:57:46.588Z,70.47
2022-10-25T10:00:17.756Z,70.69
2022-10-25T10:02:44.941Z,70.62
2022-10-25T10:05:18.326Z,71.09
2022-10-25T10:07:47.487Z,71.25
2022-10-25T10:10:17.751Z,71.86
2022-10-25T10:12:48.382Z,71.98
2022-10-25T10:15:21.717Z,71.92
2022-10-25T10:17:48.972Z,72.14
2022-10-25T10:20:18.624Z,72.39
2022-10-25T10:22:52.852Z,72.23
2022-10-25T10:25:24.864Z,72.55
2022-10-25T10:27:54.645Z,72.55
2022-10-25T10:30:30.244Z,72.89
2022-10-25T10:33:01.252Z,73.21
2022-10-25T10:35:34.933Z,73.07
2022-10-25T10:38:23.973Z,72.97
2022-10-25T10:40:52.181Z,73.05
2022-10-25T10:43:32.077Z,72.94
2022-10-25T10:46:05.239Z,72.73
2022-10-25T10:48:41.904Z,72.51
2022-10-25T10:51:25.229Z,73.02
2022-10-25T10:53:57.845Z,72.64
2022-10-25T10:56:25.859Z,72.59
2022-10-25T10:58:53.874Z,72.48
2022-10-25T11:01:34.203Z,72.36
2022-10-25T11:04:03.439Z,72.21
2022-10-25T11:06:32.687Z,72.01
2022-10-25T11:09:18.250Z,72.30
2022-10-25T11:11:46.544Z,72.31
2022-10-25T11:14:15.703Z,72.27
2022-10-25T11:16:54.015Z,72.35
2022-10-25T11:19:43.195Z,72.51
2022-10-25T11:22:27.434Z,72.67
2022-10-25T11:25:19.822Z,72.71
2022-10-25T11:27:59.805Z,72.91
2022-10-25T11:30:32.976Z,72.94
2022-10-25T11:33:21.697Z,72.60
2022-10-25T11:36:07.347Z,72.27
2022-10-25T11:38:52.588Z,72.17
2022-10-25T11:41:33.302Z,72.01
2022-10-25T11:44:27.034Z,72.24
2022-10-25T11:47:03.214Z,72.25
2022-10-25T11:49:52.374Z,71.59
2022-10-25T11:53:10.331Z,71.44
2022-10-25T11:55:44.185Z,71.11
2022-10-25T11:58:25.717Z,70.87
2022-10-25T12:00:59.780Z,70.94
2022-10-25T12:03:43.712Z,71.30
2022-10-25T12:06:24.968Z,71.78
2022-10-25T12:09:02.912Z,70.99
2022-10-25T12:11:33.184Z,70.48
2022-10-25T12:14:05.484Z,70.25
2022-10-25T12:16:35.584Z,70.16
2022-10-25T12:19:12.601Z,70.33
2022-10-25T12:21:46.297Z,70.21
2022-10-25T12:24:21.003Z,70.09
2022-10-25T12:26:50.153Z,70.24
2022-10-25T12:29:21.595Z,70.54
2022-10-25T12:31:54.474Z,70.42
2022-10-25T12:34:27.514Z,70.32
2022-10-25T12:36:57.208Z,70.33
2022-10-25T12:39:36.939Z,70.57
2022-10-25T12:42:07.786Z,70.49
2022-10-25T12:44:55.179Z,70.68
2022-10-25T12:47:48.112Z,70.73
2022-10-25T12:50:31.075Z,70.76
2022-10-25T12:53:29.152Z,70.70
2022-10-25T12:56:07.521Z,70.83
2022-10-25T12:58:53.666Z,71.08
2022-10-25T13:01:35.707Z,71.30
2022-10-25T13:04:37.977Z,71.43
2022-10-25T13:07:07.764Z,71.66
2022-10-25T13:09:37.429Z,71.58
2022-10-25T13:12:06.954Z,71.45
2022-10-25T13:14:38.516Z,71.58
2022-10-25T13:17:40.413Z,71.66
2022-10-25T13:20:45.193Z,72.09
2022-10-25T13:23:59.510Z,72.03
2022-10-25T13:26:28.450Z,71.63
2022-10-25T13:28:57.120Z,71.36
2022-10-25T13:31:58.029Z,71.27
2022-10-25T13:34:34.450Z,70.68
2022-10-25T13:37:06.235Z,70.50
2022-10-25T13:39:38.246Z,70.41
2022-10-25T13:42:21.205Z,70.63
2022-10-25T13:44:56.286Z,70.74
2022-10-25T13:47:36.816Z,70.79
2022-10-25T13:50:12.397Z,70.49
2022-10-25T13:52:44.561Z,70.64
2022-10-25T13:55:17.462Z,70.28
2022-10-25T13:57:56.712Z,70.22
2022-10-25T14:00:37.248Z,70.01
2022-10-25T14:03:34.739Z,69.76
2022-10-25T14:06:29.121Z,69.55
2022-10-25T14:09:08.887Z,69.46
2022-10-25T14:11:42.161Z,69.35
2022-10-25T14:14:28.047Z,69.48
2022-10-25T14:17:20.351Z,69.68
2022-10-25T14:19:51.330Z,70.08
2022-10-25T14:22:27.840Z,70.30
2022-10-25T14:24:58.554Z,70.40
2022-10-25T14:27:34.699Z,70.84
2022-10-25T14:30:26.252Z,71.01
2022-10-25T14:32:56.003Z,71.20
2022-10-25T14:35:24.787Z,71.35
2022-10-25T14:37:52.329Z,71.44
2022-10-25T14:40:24.168Z,71.60
2022-10-25T14:42:51.624Z,71.78
2022-10-25T14:45:24.513Z,71.93
2022-10-25T14:47:52.282Z,72.06
2022-10-25T14:50:22.400Z,72.15
2022-10-25T14:52:51.591Z,72.15
2022-10-25T14:55:25.548Z,72.36
2022-10-25T14:57:52.840Z,72.62
2022-10-25T15:00:24.844Z,72.78
2022-10-25T15:02:54.839Z,72.79
2022-10-25T15:05:24.540Z,72.99
2022-10-25T15:07:55.721Z,72.97
2022-10-25T15:10:44.504Z,73.16
2022-10-25T15:13:21.932Z,73.28
2022-10-25T15:15:50.913Z,73.63
2022-10-25T15:18:36.863Z,73.57
2022-10-25T15:21:11.196Z,73.67
2022-10-25T15:23:39.627Z,73.75
2022-10-25T15:26:35.813Z,73.75
2022-10-25T15:29:06.293Z,73.88
2022-10-25T15:31:37.094Z,73.89
2022-10-25T15:34:06.494Z,73.93
2022-10-25T15:36:35.605Z,74.04
2022-10-25T15:39:23.402Z,74.19
2022-10-25T15:41:50.588Z,74.28
2022-10-25T15:44:17.693Z,74.42
2022-10-25T15:46:44.947Z,74.54
2022-10-25T15:49:14.776Z,74.63
2022-10-25T15:51:45.741Z,74.79
2022-10-25T15:54:17.759Z,74.97
2022-10-25T15:56:45.282Z,75.16
2022-10-25T15:59:13.640Z,75.31
2022-10-25T16:01:42.386Z,75.65
2022-10-25T16:04:10.968Z,75.75
2022-10-25T16:06:38.261Z,75.86
2022-10-25T16:09:05.723Z,75.90
2022-10-25T16:11:32.884Z,75.96
2022-10-25T16:14:00.352Z,76.04
2022-10-25T16:16:45.111Z,76.20
2022-10-25T16:19:16.459Z,76.29
2022-10-25T16:21:43.531Z,76.51
2022-10-25T16:24:10.793Z,76.71
2022-10-25T16:26:43.036Z,76.72
2022-10-25T16:29:15.358Z,76.91
2022-10-25T16:31:42.514Z,77.09
2022-10-25T16:34:09.601Z,76.96
2022-10-25T16:36:36.867Z,77.20
2022-10-25T16:39:04.379Z,77.27
2022-10-25T16:41:31.978Z,77.36
2022-10-25T16:43:59.386Z,77.44
2022-10-25T16:46:26.942Z,77.44
2022-10-25T16:48:55.877Z,77.51
2022-10-25T16:51:26.058Z,77.60
2022-10-25T16:53:53.150Z,77.61
2022-10-25T16:56:20.256Z,77.52
2022-10-25T16:58:47.289Z,77.57
2022-10-25T17:01:28.788Z,77.52
2022-10-25T17:03:56.602Z,77.66
2022-10-25T17:09:11.466Z,77.70
2022-10-25T17:11:39.266Z,77.60
2022-10-25T17:14:06.583Z,77.62
2022-10-25T17:16:33.779Z,77.65
2022-10-25T17:19:00.842Z,77.64
2022-10-25T17:21:28.766Z,77.74
2022-10-25T17:23:55.816Z,77.69
2022-10-25T17:26:22.921Z,77.63
2022-10-25T17:28:50.111Z,77.60
2022-10-25T17:31:18.238Z,77.45
2022-10-25T17:33:45.851Z,77.54
2022-10-25T17:36:15.048Z,77.35
2022-10-25T17:38:42.908Z,77.33
2022-10-25T17:41:10.796Z,77.35
2022-10-25T17:43:40.230Z,77.53
2022-10-25T17:46:10.200Z,77.43
2022-10-25T17:48:37.292Z,77.50
2022-10-25T17:51:06.882Z,77.57
2022-10-25T17:53:34.327Z,77.75
2022-10-25T17:56:10.667Z,77.87
2022-10-25T17:58:37.648Z,77.95
2022-10-25T18:01:07.774Z,78.10
2022-10-25T18:03:35.147Z,78.24
2022-10-25T18:06:04.158Z,78.32
2022-10-25T18:08:31.665Z,78.34
2022-10-25T18:10:58.960Z,78.44
2022-10-25T18:13:27.240Z,78.44
2022-10-25T18:15:54.874Z,78.53
2022-10-25T18:18:22.981Z,78.59
2022-10-25T18:20:51.634Z,78.58
2022-10-25T18:23:19.195Z,78.72
2022-10-25T18:28:23.773Z,78.64
2022-10-25T18:30:51.466Z,78.51
2022-10-25T18:33:19.208Z,78.55
2022-10-25T18:35:46.301Z,78.41
2022-10-25T18:38:17.094Z,78.31
2022-10-25T18:40:45.201Z,78.28
2022-10-25T18:43:12.378Z,78.40
2022-10-25T18:45:39.692Z,78.51
2022-10-25T18:48:08.687Z,78.58
2022-10-25T18:50:40.432Z,78.58
2022-10-25T18:53:09.867Z,78.74
2022-10-25T18:55:37.233Z,78.80
2022-10-25T18:58:04.401Z,78.78
2022-10-25T19:00:31.641Z,78.86
2022-10-25T19:02:58.865Z,78.82
2022-10-25T19:05:27.819Z,78.97
2022-10-25T19:07:54.856Z,79.06
2022-10-25T19:10:22.157Z,79.11
2022-10-25T19:12:49.355Z,79.18
2022-10-25T19:15:16.557Z,79.15
2022-10-25T19:17:43.655Z,79.06
2022-10-25T19:20:11.574Z,79.14
2022-10-25T19:22:38.846Z,79.16
2022-10-25T19:25:06.698Z,79.40
2022-10-25T19:27:33.726Z,79.52
2022-10-25T19:30:01.124Z,79.62
2022-10-25T19:32:30.628Z,79.73
2022-10-25T19:34:57.798Z,79.83
2022-10-25T19:37:25.029Z,79.98
2022-10-25T19:39:54.381Z,80.10
2022-10-25T19:42:23.912Z,80.09
2022-10-25T19:44:52.027Z,80.02
2022-10-25T19:47:19.527Z,79.99
2022-10-25T19:49:48.134Z,80.12
2022-10-25T19:52:15.227Z,80.16
2022-10-25T19:54:42.224Z,80.13
2022-10-25T19:57:09.384Z,79.97
2022-10-25T19:59:37.198Z,80.18
2022-10-25T20:02:04.601Z,80.40
2022-10-25T20:04:31.750Z,80.38
2022-10-25T20:06:58.952Z,80.43
2022-10-25T20:09:26.049Z,80.38
2022-10-25T20:11:53.755Z,80.49
2022-10-25T20:14:20.803Z,80.58
2022-10-25T20:16:47.853Z,80.56
2022-10-25T20:19:16.600Z,80.67
2022-10-25T20:21:43.742Z,80.89
2022-10-25T20:24:11.767Z,80.97
2022-10-25T20:26:40.876Z,80.90
2022-10-25T20:29:17.027Z,81.05
2022-10-25T20:31:47.926Z,81.10
2022-10-25T20:34:14.940Z,81.13
2022-10-25T20:36:42.398Z,81.08
2022-10-25T20:39:09.550Z,81.12
2022-10-25T20:41:38.205Z,81.14
2022-10-25T20:44:05.903Z,81.25
2022-10-25T20:46:34.173Z,81.34
2022-10-25T20:49:02.388Z,81.17
2022-10-25T20:51:29.627Z,81.17
2022-10-25T20:53:57.098Z,81.25
2022-10-25T20:56:24.689Z,81.22
2022-10-25T20:58:52.617Z,81.23
2022-10-25T21:01:20.059Z,81.45
2022-10-25T21:03:47.233Z,81.40
2022-10-25T21:06:14.690Z,81.47
2022-10-25T21:08:42.097Z,81.43
2022-10-25T21:11:12.108Z,81.56
2022-10-25T21:13:41.652Z,81.37
2022-10-25T21:16:10.833Z,81.61
2022-10-25T21:18:38.489Z,81.73
2022-10-25T21:21:07.171Z,81.88
2022-10-25T21:23:34.461Z,81.88
2022-10-25T21:26:02.511Z,81.94
2022-10-25T21:28:32.369Z,82.20
2022-10-25T21:31:03.294Z,82.30
2022-10-25T21:33:30.467Z,82.38
2022-10-25T21:36:02.629Z,82.35
2022-10-25T21:38:29.651Z,82.27
2022-10-25T21:40:56.722Z,82.38
2022-10-25T21:43:25.485Z,82.34
2022-10-25T21:45:54.519Z,82.29
2022-10-25T21:48:21.588Z,82.42
2022-10-25T21:50:58.572Z,82.47
2022-10-25T21:53:23.941Z,82.44
2022-10-25T21:55:51.032Z,82.47
2022-10-25T21:58:18.572Z,82.61
2022-10-25T22:00:45.737Z,82.69
2022-10-25T22:03:12.792Z,82.63
2022-10-25T22:05:45.165Z,82.80
2022-10-25T22:08:12.326Z,82.77
2022-10-25T22:10:39.289Z,82.68
2022-10-25T22:13:06.463Z,82.59
2022-10-25T22:15:33.479Z,82.65
2022-10-25T22:18:00.523Z,82.80
2022-10-25T22:20:27.754Z,82.94
2022-10-25T22:22:54.785Z,83.09
2022-10-25T22:25:21.855Z,83.11
2022-10-25T22:27:48.902Z,83.19
2022-10-25T22:30:18.385Z,83.24
2022-10-25T22:32:45.605Z,83.21
2022-10-25T22:35:12.889Z,83.39
2022-10-25T22:37:40.053Z,83.51
2022-10-25T22:40:08.401Z,83.41
2022-10-25T22:42:35.899Z,83.41
2022-10-25T22:45:02.949Z,83.60
2022-10-25T22:47:29.991Z,83.59
2022-10-25T22:49:57.223Z,83.63
2022-10-25T22:52:24.281Z,83.71
2022-10-25T22:54:53.864Z,83.70
2022-10-25T22:57:21.472Z,83.71
2022-10-25T22:59:48.445Z,83.57
2022-10-25T23:02:15.584Z,83.65
2022-10-25T23:04:42.680Z,83.63
2022-10-25T23:07:09.852Z,83.69
2022-10-25T23:09:39.960Z,83.84
2022-10-25T23:12:09.072Z,84.02
2022-10-25T23:14:36.247Z,84.06
2022-10-25T23:17:03.250Z,84.38
2022-10-25T23:19:30.243Z,84.38
2022-10-25T23:21:57.318Z,84.41
2022-10-25T23:24:24.344Z,84.29
2022-10-25T23:26:51.381Z,84.20
2022-10-25T23:29:18.685Z,84.14
2022-10-25T23:31:46.254Z,84.28
2022-10-25T23:34:13.397Z,84.36
2022-10-25T23:36:40.913Z,84.54
2022-10-25T23:39:09.227Z,84.65
2022-10-25T23:41:36.224Z,84.77
2022-10-25T23:44:04.140Z,85.02
2022-10-25T23:46:31.319Z,84.96
2022-10-25T23:48:58.666Z,85.00
2022-10-25T23:51:25.657Z,85.23
2022-10-25T23:53:52.801Z,85.33
2022-10-25T23:56:19.875Z,85.24
2022-10-25T23:58:50.583Z,85.34
